createdAt,value
2022-08-24T00:02:18.395Z,100580.47
2022-08-24T00:17:21.991Z,100575.63
2022-08-24T00:32:25.143Z,100573.52
2022-08-24T00:47:35.144Z,100580.95
2022-08-24T01:02:43.936Z,100581.70
2022-08-24T01:18:06.013Z,100591.90
2022-08-24T01:33:10.803Z,100590.36
2022-08-24T01:48:15.585Z,100591.20
2022-08-24T02:03:29.569Z,100593.86
2022-08-24T02:18:36.898Z,100591.80
2022-08-24T02:33:42.649Z,100587.18
2022-08-24T02:48:47.079Z,100598.50
2022-08-24T03:04:01.648Z,100605.05
2022-08-24T03:19:05.893Z,100619.46
2022-08-24T03:34:13.822Z,100629.97
2022-08-24T03:49:18.731Z,100647.02
2022-08-24T04:04:23.200Z,100662.48
2022-08-24T04:19:27.429Z,100671.27
2022-08-24T04:34:32.268Z,100681.63
2022-08-24T04:49:37.693Z,100693.59
2022-08-24T05:04:41.103Z,100711.17
2022-08-24T05:19:44.431Z,100722.07
2022-08-24T05:34:47.967Z,100733.23
2022-08-24T05:49:54.044Z,100738.80
2022-08-24T06:04:57.605Z,100747.98
2022-08-24T06:20:01.707Z,100736.62
2022-08-24T06:35:08.197Z,100733.63
2022-08-24T06:50:14.982Z,100722.41
2022-08-24T07:05:18.562Z,100732.86
2022-08-24T07:20:43.235Z,100732.41
2022-08-24T07:35:56.340Z,100746.04
2022-08-24T07:51:11.511Z,100757.52
2022-08-24T08:06:17.682Z,100757.71
2022-08-24T08:21:40.638Z,100755.08
2022-08-24T08:36:46.718Z,100754.57
2022-08-24T08:52:27.407Z,100770.43
2022-08-24T09:07:33.805Z,100772.10
2022-08-24T09:22:43.845Z,100771.02
2022-08-24T09:37:57.216Z,100769.10
2022-08-24T09:53:22.696Z,100765.13
2022-08-24T10:08:39.027Z,100766.52
2022-08-24T10:24:09.287Z,100770.77
2022-08-24T10:40:00.103Z,100770.73
2022-08-24T10:55:17.595Z,100771.52
2022-08-24T11:10:28.559Z,100772.05
2022-08-24T11:25:34.342Z,100775.52
2022-08-24T11:40:42.042Z,100774.54
2022-08-24T11:56:21.470Z,100773.23
2022-08-24T12:11:45.657Z,100771.17
2022-08-24T12:26:57.639Z,100773.19
2022-08-24T12:42:16.896Z,100769.95
2022-08-24T12:57:25.296Z,100765.30
2022-08-24T13:12:38.591Z,100757.14
2022-08-24T13:27:44.703Z,100766.27
2022-08-24T13:43:11.292Z,100769.20
2022-08-24T13:58:40.020Z,100770.13
2022-08-24T14:13:57.643Z,100761.34
2022-08-24T14:29:19.517Z,100760.09
2022-08-24T14:44:36.515Z,100757.03
2022-08-24T15:00:03.593Z,100752.02
2022-08-24T15:15:31.595Z,100748.25
2022-08-24T15:30:40.646Z,100746.71
2022-08-24T15:45:51.818Z,100744.01
2022-08-24T16:01:39.353Z,100742.48
2022-08-24T16:16:45.847Z,100739.20
2022-08-24T16:31:52.359Z,100758.34
2022-08-24T16:46:56.410Z,100768.13
2022-08-24T17:02:01.585Z,100781.86
2022-08-24T17:17:11.857Z,100801.38
2022-08-24T17:32:16.666Z,100822.51
2022-08-24T17:47:20.147Z,100828.86
2022-08-24T18:02:23.213Z,100839.56
2022-08-24T18:17:41.761Z,100845.42
2022-08-24T18:32:46.340Z,100850.50
2022-08-24T18:47:53.517Z,100861.90
2022-08-24T19:03:03.308Z,100871.09
2022-08-24T19:18:07.147Z,100885.80
2022-08-24T19:33:20.737Z,100888.73
2022-08-24T19:48:25.263Z,100889.20
2022-08-24T20:03:28.859Z,100894.88
2022-08-24T20:18:34.660Z,100901.63
2022-08-24T20:33:38.215Z,100901.55
2022-08-24T20:48:43.239Z,100901.11
2022-08-24T21:03:47.182Z,100898.27
2022-08-24T21:18:51.211Z,100901.67
2022-08-24T21:34:14.010Z,100908.87
2022-08-24T21:49:17.085Z,100917.95
2022-08-24T22:04:20.373Z,100937.52
2022-08-24T22:19:23.903Z,100939.12
2022-08-24T22:34:27.456Z,100930.89
2022-08-24T22:49:35.461Z,100973.55
2022-08-24T23:04:44.055Z,101013.72
2022-08-24T23:20:02.143Z,101006.66
2022-08-24T23:35:06.448Z,100989.52
2022-08-24T23:50:11.380Z,100962.66
